Time;durP1;ratioP1;P1;durP2;ratioP2;P2;SDS_P1;SDS_P2;PMS_P1;PMS_P2;Temp;Humidity;BMP_temperature;BMP_pressure;BME280_temperature;BME280_humidity;BME280_pressure;Samples;Min_cycle;Max_cycle;Signal;HPM_P1;HPM_P2
2023/08/23 00:03:41;;;;;;;8.68;7.88;;;;;;;;;;10067955;28;20136;-71
2023/08/23 00:08:33;;;;;;;12.27;7.32;;;;;;;;;;10061644;28;20045;-71
2023/08/23 00:13:24;;;;;;;7.75;7.05;;;;;;;;;;10067935;28;20376;-70
2023/08/23 00:18:16;;;;;;;7.45;6.85;;;;;;;;;;10067563;28;20108;-70
2023/08/23 00:23:08;;;;;;;7.95;7.15;;;;;;;;;;10059889;28;20498;-73
2023/08/23 00:28:00;;;;;;;10.70;7.30;;;;;;;;;;10064888;28;20383;-71
2023/08/23 00:33:04;;;;;;;10.40;7.10;;;;;;;;;;10042449;28;20038;-70
2023/08/23 00:37:56;;;;;;;8.70;7.13;;;;;;;;;;10041732;28;20084;-71
2023/08/23 00:42:48;;;;;;;9.23;7.80;;;;;;;;;;10047696;28;20525;-71
2023/08/23 00:47:40;;;;;;;8.30;6.93;;;;;;;;;;10039921;28;20038;-70
2023/08/23 00:52:32;;;;;;;11.65;7.72;;;;;;;;;;10030128;28;20081;-70
2023/08/23 00:57:43;;;;;;;9.30;7.38;;;;;;;;;;10029934;28;20083;-70
2023/08/23 01:02:36;;;;;;;8.48;6.70;;;;;;;;;;10060803;28;20137;-71
2023/08/23 01:07:40;;;;;;;10.00;7.82;;;;;;;;;;10061764;28;20038;-71
2023/08/23 01:12:47;;;;;;;13.02;8.57;;;;;;;;;;10062629;28;20041;-73
2023/08/23 01:17:42;;;;;;;11.90;7.97;;;;;;;;;;10054478;28;20041;-72
2023/08/23 01:22:38;;;;;;;9.27;8.35;;;;;;;;;;10048401;28;20053;-70
2023/08/23 01:27:32;;;;;;;10.00;8.93;;;;;;;;;;10063819;28;20460;-72
2023/08/23 01:32:46;;;;;;;8.23;7.43;;;;;;;;;;10048002;28;20059;-70
2023/08/23 01:37:39;;;;;;;13.90;7.22;;;;;;;;;;10049917;28;20041;-70
2023/08/23 01:42:31;;;;;;;10.60;7.20;;;;;;;;;;10062155;28;20045;-72
2023/08/23 01:47:23;;;;;;;7.65;6.47;;;;;;;;;;10051761;28;20486;-70
2023/08/23 01:52:15;;;;;;;14.73;8.88;;;;;;;;;;10064249;28;20095;-71
2023/08/23 01:57:07;;;;;;;9.55;7.63;;;;;;;;;;10061883;28;20052;-71
2023/08/23 02:01:59;;;;;;;9.45;8.65;;;;;;;;;;10042127;28;20046;-74
2023/08/23 02:06:51;;;;;;;12.75;9.95;;;;;;;;;;10042734;28;20144;-71
2023/08/23 02:11:43;;;;;;;11.77;8.68;;;;;;;;;;10041736;28;20140;-71
2023/08/23 02:16:34;;;;;;;8.82;7.93;;;;;;;;;;10019927;28;20108;-70
2023/08/23 02:21:26;;;;;;;10.45;8.05;;;;;;;;;;10020175;28;20168;-71
2023/08/23 02:26:18;;;;;;;11.73;8.68;;;;;;;;;;10040981;28;20135;-71
2023/08/23 02:31:10;;;;;;;13.48;8.27;;;;;;;;;;10043425;28;20379;-72
2023/08/23 02:36:02;;;;;;;9.93;8.15;;;;;;;;;;10039201;28;20084;-72
2023/08/23 02:40:57;;;;;;;10.98;8.40;;;;;;;;;;10023103;28;20046;-73
2023/08/23 02:45:49;;;;;;;9.77;8.80;;;;;;;;;;10040810;28;20491;-72
2023/08/23 02:50:42;;;;;;;8.70;7.90;;;;;;;;;;10060880;28;20064;-72
2023/08/23 02:55:38;;;;;;;11.88;9.18;;;;;;;;;;10021807;28;20045;-71
2023/08/23 03:00:30;;;;;;;8.30;7.50;;;;;;;;;;10041397;28;20048;-72
2023/08/23 03:05:21;;;;;;;8.27;7.47;;;;;;;;;;10021428;28;20637;-72
2023/08/23 03:10:14;;;;;;;10.18;7.90;;;;;;;;;;10022584;28;20061;-72
2023/08/23 03:15:07;;;;;;;7.95;7.15;;;;;;;;;;10019503;28;20112;-73
2023/08/23 03:19:59;;;;;;;8.90;8.05;;;;;;;;;;10011142;28;20424;-72
2023/08/23 03:24:51;;;;;;;8.30;7.60;;;;;;;;;;10028475;28;20129;-73
2023/08/23 03:29:46;;;;;;;9.38;7.82;;;;;;;;;;10010553;28;20045;-73
2023/08/23 03:34:38;;;;;;;8.82;7.90;;;;;;;;;;10011596;28;20070;-73
2023/08/23 03:39:33;;;;;;;12.77;7.97;;;;;;;;;;10057267;28;20041;-73
2023/08/23 03:44:26;;;;;;;9.38;7.93;;;;;;;;;;10067328;28;20107;-73
2023/08/23 03:49:17;;;;;;;11.23;9.25;;;;;;;;;;10051991;28;20100;-72
2023/08/23 03:54:09;;;;;;;10.02;8.65;;;;;;;;;;10037329;28;20049;-73
2023/08/23 03:59:01;;;;;;;7.63;6.93;;;;;;;;;;10049712;28;20072;-73
2023/08/23 04:03:53;;;;;;;11.27;7.45;;;;;;;;;;10050854;28;20046;-74
2023/08/23 04:08:47;;;;;;;14.00;8.18;;;;;;;;;;10047432;28;20475;-73
2023/08/23 04:13:39;;;;;;;9.05;7.65;;;;;;;;;;10042265;28;20095;-74
2023/08/23 04:18:31;;;;;;;7.72;7.03;;;;;;;;;;10066780;28;20041;-73
2023/08/23 04:23:22;;;;;;;7.78;6.97;;;;;;;;;;10031107;28;20042;-73
2023/08/23 04:28:14;;;;;;;9.73;7.82;;;;;;;;;;10025088;28;20049;-73
2023/08/23 04:33:07;;;;;;;8.32;6.60;;;;;;;;;;10010807;28;20495;-72
2023/08/23 04:37:59;;;;;;;9.85;7.25;;;;;;;;;;10023042;28;20056;-72
2023/08/23 04:42:51;;;;;;;8.38;7.57;;;;;;;;;;10065878;28;20046;-74
2023/08/23 04:47:43;;;;;;;10.07;8.85;;;;;;;;;;10048984;28;20056;-73
2023/08/23 04:52:35;;;;;;;8.95;8.15;;;;;;;;;;10048595;28;20121;-74
2023/08/23 04:57:26;;;;;;;9.05;8.15;;;;;;;;;;10046630;28;20537;-74
2023/08/23 05:02:18;;;;;;;12.77;6.85;;;;;;;;;;10046297;28;20049;-74
2023/08/23 05:07:12;;;;;;;11.38;7.03;;;;;;;;;;10061846;28;20053;-74
2023/08/23 05:12:06;;;;;;;7.57;6.88;;;;;;;;;;10034587;28;20052;-73
2023/08/23 05:16:58;;;;;;;9.93;6.70;;;;;;;;;;10006383;28;20136;-73
2023/08/23 05:21:50;;;;;;;9.00;6.65;;;;;;;;;;10037849;28;20064;-73
2023/08/23 05:26:42;;;;;;;9.48;7.32;;;;;;;;;;10033673;28;20038;-73
2023/08/23 05:31:34;;;;;;;8.70;7.47;;;;;;;;;;10024777;28;20045;-73
2023/08/23 05:36:26;;;;;;;8.10;6.35;;;;;;;;;;10024741;28;20137;-73
2023/08/23 05:41:18;;;;;;;14.32;6.45;;;;;;;;;;10046710;28;20053;-71
2023/08/23 05:46:10;;;;;;;12.75;6.82;;;;;;;;;;10046569;28;20046;-69
2023/08/23 05:51:03;;;;;;;8.63;6.88;;;;;;;;;;10019813;28;20038;-68
2023/08/23 05:55:55;;;;;;;7.57;6.82;;;;;;;;;;10025935;28;20161;-68
2023/08/23 06:00:48;;;;;;;7.88;6.85;;;;;;;;;;10022415;28;20092;-69
2023/08/23 06:05:41;;;;;;;8.73;6.88;;;;;;;;;;10023475;28;20460;-68
2023/08/23 06:10:33;;;;;;;11.52;8.77;;;;;;;;;;10024409;28;20049;-70
2023/08/23 06:15:25;;;;;;;10.45;8.73;;;;;;;;;;10022782;28;20037;-68
2023/08/23 06:20:16;;;;;;;9.95;8.85;;;;;;;;;;10022200;28;20089;-68
2023/08/23 06:25:09;;;;;;;11.82;8.75;;;;;;;;;;10021944;28;20093;-68
2023/08/23 06:30:04;;;;;;;22.08;9.75;;;;;;;;;;10022454;28;20046;-68
2023/08/23 06:34:56;;;;;;;20.92;10.65;;;;;;;;;;10023401;28;20429;-68
2023/08/23 06:39:51;;;;;;;17.30;9.38;;;;;;;;;;10022288;28;20050;-68
2023/08/23 06:44:44;;;;;;;11.43;8.52;;;;;;;;;;10048673;28;20065;-67
2023/08/23 06:49:36;;;;;;;12.93;9.27;;;;;;;;;;10035591;28;20121;-69
2023/08/23 06:54:28;;;;;;;12.20;9.45;;;;;;;;;;10025687;28;20132;-67
2023/08/23 06:59:20;;;;;;;13.80;8.32;;;;;;;;;;10050220;28;20079;-68
2023/08/23 07:04:12;;;;;;;12.77;9.10;;;;;;;;;;10059956;28;20042;-69
2023/08/23 07:09:06;;;;;;;17.17;7.72;;;;;;;;;;10044515;28;20037;-69
2023/08/23 07:13:58;;;;;;;13.48;8.50;;;;;;;;;;10055703;28;20045;-69
2023/08/23 07:18:50;;;;;;;11.07;8.90;;;;;;;;;;10050536;28;20421;-68
2023/08/23 07:23:42;;;;;;;14.35;7.18;;;;;;;;;;10042016;28;20424;-66
2023/08/23 07:28:34;;;;;;;11.93;7.93;;;;;;;;;;10042097;28;20038;-67
2023/08/23 07:33:26;;;;;;;12.45;7.50;;;;;;;;;;10036212;28;20041;-69
2023/08/23 07:38:18;;;;;;;7.88;7.10;;;;;;;;;;10058992;28;20053;-72
2023/08/23 07:43:10;;;;;;;7.75;6.93;;;;;;;;;;10062583;28;20124;-70
2023/08/23 07:48:02;;;;;;;10.00;6.93;;;;;;;;;;10045643;28;20148;-73
2023/08/23 07:52:54;;;;;;;10.82;7.10;;;;;;;;;;10041245;28;20049;-73
2023/08/23 07:57:46;;;;;;;8.45;7.65;;;;;;;;;;10020810;28;20108;-72
2023/08/23 08:02:40;;;;;;;11.60;6.10;;;;;;;;;;10054223;28;20049;-73
2023/08/23 08:07:33;;;;;;;10.63;6.57;;;;;;;;;;10069582;28;20046;-73
2023/08/23 08:12:45;;;;;;;14.85;6.93;;;;;;;;;;10061717;28;20045;-72
2023/08/23 08:17:37;;;;;;;9.43;8.43;;;;;;;;;;10029245;28;20141;-69
2023/08/23 08:22:28;;;;;;;10.85;9.90;;;;;;;;;;10030520;28;20046;-72
2023/08/23 08:27:20;;;;;;;10.88;8.00;;;;;;;;;;10030558;28;20553;-73
2023/08/23 08:32:12;;;;;;;11.02;9.45;;;;;;;;;;10029859;28;20125;-73
2023/08/23 08:37:06;;;;;;;11.05;9.18;;;;;;;;;;10056821;28;20144;-73
2023/08/23 08:41:59;;;;;;;10.45;9.43;;;;;;;;;;10061411;28;20380;-72
2023/08/23 08:46:51;;;;;;;11.38;8.07;;;;;;;;;;10061993;28;20041;-73
2023/08/23 08:51:46;;;;;;;17.70;8.82;;;;;;;;;;10067399;28;20115;-74
2023/08/23 08:56:38;;;;;;;10.18;8.80;;;;;;;;;;10068266;28;20076;-73
2023/08/23 09:01:32;;;;;;;11.90;8.63;;;;;;;;;;10050670;28;20057;-74
2023/08/23 09:06:25;;;;;;;12.00;8.70;;;;;;;;;;10064368;28;20136;-68
2023/08/23 09:11:17;;;;;;;13.23;7.47;;;;;;;;;;10063545;28;20042;-72
2023/08/23 09:16:13;;;;;;;8.93;8.00;;;;;;;;;;10067101;28;20049;-73
2023/08/23 09:21:05;;;;;;;13.38;8.00;;;;;;;;;;10067600;28;20051;-73
2023/08/23 09:25:57;;;;;;;9.10;7.30;;;;;;;;;;10066375;28;20049;-73
2023/08/23 09:30:49;;;;;;;12.75;7.05;;;;;;;;;;10064129;28;20100;-73
2023/08/23 09:35:51;;;;;;;9.15;6.70;;;;;;;;;;10065957;28;20376;-70
2023/08/23 09:40:43;;;;;;;15.73;8.30;;;;;;;;;;10063327;28;20047;-74
2023/08/23 09:45:35;;;;;;;11.82;8.30;;;;;;;;;;10064745;28;20049;-72
2023/08/23 09:50:28;;;;;;;9.27;7.18;;;;;;;;;;10064958;28;20061;-73
2023/08/23 09:55:20;;;;;;;8.52;6.90;;;;;;;;;;10064243;28;20070;-72
2023/08/23 10:00:12;;;;;;;11.30;6.68;;;;;;;;;;10060085;28;20061;-74
2023/08/23 10:05:06;;;;;;;12.27;6.72;;;;;;;;;;10047349;28;20049;-77
2023/08/23 10:09:59;;;;;;;11.93;8.05;;;;;;;;;;10047303;28;20045;-73
2023/08/23 10:14:53;;;;;;;10.60;7.72;;;;;;;;;;10062686;28;20069;-73
2023/08/23 10:19:49;;;;;;;13.30;7.18;;;;;;;;;;10063531;28;20050;-74
2023/08/23 10:24:45;;;;;;;10.23;7.18;;;;;;;;;;10062273;28;20073;-81
2023/08/23 10:29:38;;;;;;;11.25;6.93;;;;;;;;;;10061430;28;20388;-79
2023/08/23 10:34:33;;;;;;;8.35;7.20;;;;;;;;;;10058540;28;20116;-80
2023/08/23 10:39:26;;;;;;;9.57;8.30;;;;;;;;;;10057505;28;20451;-75
2023/08/23 10:44:19;;;;;;;8.55;6.93;;;;;;;;;;10056160;28;20037;-76
2023/08/23 10:49:12;;;;;;;10.05;7.22;;;;;;;;;;10058112;28;20827;-75
2023/08/23 10:54:06;;;;;;;7.78;7.03;;;;;;;;;;10055332;28;20038;-79
2023/08/23 10:58:58;;;;;;;7.85;6.43;;;;;;;;;;10054076;28;20360;-71
2023/08/23 11:03:51;;;;;;;7.45;5.70;;;;;;;;;;10046482;28;20072;-70
2023/08/23 11:08:44;;;;;;;8.80;5.65;;;;;;;;;;10026775;28;20042;-71
2023/08/23 11:13:36;;;;;;;7.72;5.68;;;;;;;;;;10061574;28;20076;-72
2023/08/23 11:18:28;;;;;;;8.60;5.57;;;;;;;;;;10062128;28;20127;-73
2023/08/23 11:23:20;;;;;;;10.88;6.20;;;;;;;;;;10058559;28;20038;-72
2023/08/23 11:28:15;;;;;;;6.93;5.88;;;;;;;;;;10057268;28;20055;-72
2023/08/23 11:33:10;;;;;;;7.55;6.10;;;;;;;;;;10058228;28;20399;-73
2023/08/23 11:38:05;;;;;;;8.00;5.40;;;;;;;;;;10041471;28;20133;-73
2023/08/23 11:42:57;;;;;;;9.57;6.68;;;;;;;;;;10067850;28;20179;-72
2023/08/23 11:48:10;;;;;;;8.50;6.05;;;;;;;;;;10068834;28;20095;-73
2023/08/23 11:53:03;;;;;;;11.15;4.93;;;;;;;;;;10069192;28;20103;-74
2023/08/23 11:57:57;;;;;;;5.47;4.97;;;;;;;;;;10068908;28;20045;-73
2023/08/23 12:02:49;;;;;;;8.88;6.03;;;;;;;;;;10067127;28;20436;-73
2023/08/23 12:07:41;;;;;;;5.75;4.93;;;;;;;;;;10068306;28;20096;-74
2023/08/23 12:12:35;;;;;;;12.55;5.60;;;;;;;;;;10067697;28;20169;-74
2023/08/23 12:17:28;;;;;;;10.48;4.82;;;;;;;;;;10050102;28;20045;-73
2023/08/23 12:22:20;;;;;;;8.00;4.45;;;;;;;;;;10067478;28;20377;-74
2023/08/23 12:27:12;;;;;;;5.60;4.95;;;;;;;;;;10065741;28;20390;-73
2023/08/23 12:32:07;;;;;;;4.70;4.28;;;;;;;;;;10066070;28;20114;-73
2023/08/23 12:37:00;;;;;;;7.22;4.55;;;;;;;;;;10065365;28;20073;-74
2023/08/23 12:41:52;;;;;;;5.47;4.97;;;;;;;;;;10065628;28;20128;-71
2023/08/23 12:46:44;;;;;;;5.32;4.30;;;;;;;;;;10064879;28;20084;-74
2023/08/23 12:51:36;;;;;;;7.32;5.20;;;;;;;;;;10066764;28;20062;-72
2023/08/23 12:56:28;;;;;;;5.43;4.30;;;;;;;;;;10065665;28;20152;-72
2023/08/23 13:01:19;;;;;;;4.78;3.42;;;;;;;;;;10063823;28;20096;-75
2023/08/23 13:06:11;;;;;;;7.13;3.75;;;;;;;;;;10065802;28;20041;-74
2023/08/23 13:11:03;;;;;;;7.60;4.40;;;;;;;;;;10064599;28;20404;-76
2023/08/23 13:15:55;;;;;;;8.45;4.65;;;;;;;;;;10061451;28;20142;-76
2023/08/23 13:20:47;;;;;;;5.57;4.00;;;;;;;;;;10062729;28;20444;-74
2023/08/23 13:25:39;;;;;;;5.57;3.25;;;;;;;;;;10068017;28;20083;-76
2023/08/23 13:30:31;;;;;;;6.05;3.78;;;;;;;;;;10075164;28;20151;-77
2023/08/23 13:35:23;;;;;;;4.57;4.18;;;;;;;;;;10078344;28;20156;-73
2023/08/23 13:40:15;;;;;;;15.38;4.32;;;;;;;;;;10065355;28;20073;-77
2023/08/23 13:45:08;;;;;;;5.43;3.90;;;;;;;;;;10063638;28;20073;-77
2023/08/23 13:50:00;;;;;;;7.32;3.70;;;;;;;;;;10067318;28;20048;-77
2023/08/23 13:54:52;;;;;;;5.25;3.53;;;;;;;;;;10070652;28;20046;-77
2023/08/23 13:59:44;;;;;;;6.47;3.72;;;;;;;;;;10061993;28;20483;-76
2023/08/23 14:04:39;;;;;;;4.57;3.75;;;;;;;;;;10059180;28;20129;-76
2023/08/23 14:09:31;;;;;;;10.02;3.55;;;;;;;;;;10060137;28;20052;-77
2023/08/23 14:14:24;;;;;;;5.63;3.35;;;;;;;;;;10059661;28;20100;-75
2023/08/23 14:19:19;;;;;;;7.50;3.33;;;;;;;;;;10034394;28;20045;-75
2023/08/23 14:24:11;;;;;;;8.77;3.45;;;;;;;;;;10057017;28;20131;-78
2023/08/23 14:29:03;;;;;;;3.72;3.42;;;;;;;;;;10055648;28;20121;-76
2023/08/23 14:33:55;;;;;;;4.50;3.20;;;;;;;;;;10063243;28;20423;-75
2023/08/23 14:38:47;;;;;;;9.85;3.50;;;;;;;;;;10056855;28;20165;-77
2023/08/23 14:43:39;;;;;;;5.20;3.15;;;;;;;;;;10061392;28;20491;-75
2023/08/23 14:48:31;;;;;;;5.00;3.00;;;;;;;;;;10079413;28;20124;-75
2023/08/23 14:53:23;;;;;;;10.63;3.50;;;;;;;;;;10060673;28;20092;-76
2023/08/23 14:58:16;;;;;;;4.38;2.70;;;;;;;;;;10059621;28;20451;-76
2023/08/23 15:03:13;;;;;;;14.23;2.95;;;;;;;;;;10021629;28;20093;-78
2023/08/23 15:08:05;;;;;;;4.15;3.65;;;;;;;;;;10020440;28;20132;-77
2023/08/23 15:12:59;;;;;;;4.85;2.95;;;;;;;;;;10026410;28;20375;-75
2023/08/23 15:17:51;;;;;;;5.68;2.65;;;;;;;;;;10028894;28;20060;-75
2023/08/23 15:22:43;;;;;;;5.75;3.10;;;;;;;;;;10028682;28;20038;-77
2023/08/23 15:27:37;;;;;;;5.05;3.05;;;;;;;;;;10028243;28;20038;-76
2023/08/23 15:32:38;;;;;;;4.05;2.75;;;;;;;;;;10029038;28;20046;-74
2023/08/23 15:37:30;;;;;;;5.95;3.03;;;;;;;;;;10023981;28;20457;-75
2023/08/23 15:42:23;;;;;;;5.50;2.97;;;;;;;;;;10029899;28;20439;-76
2023/08/23 15:47:16;;;;;;;4.97;3.05;;;;;;;;;;10028225;28;20380;-75
2023/08/23 15:52:08;;;;;;;4.90;3.03;;;;;;;;;;10026555;28;20132;-76
2023/08/23 15:57:00;;;;;;;3.17;2.88;;;;;;;;;;10028651;28;20393;-75
2023/08/23 16:01:52;;;;;;;6.85;3.47;;;;;;;;;;10099561;28;20136;-74
2023/08/23 16:06:44;;;;;;;7.75;2.50;;;;;;;;;;10097573;28;20049;-74
2023/08/23 16:11:36;;;;;;;7.00;3.00;;;;;;;;;;10068329;28;20045;-76
2023/08/23 16:16:29;;;;;;;11.23;4.20;;;;;;;;;;10067935;28;20046;-76
2023/08/23 16:21:21;;;;;;;2.83;2.58;;;;;;;;;;10066845;28;20056;-75
2023/08/23 16:26:14;;;;;;;3.03;2.83;;;;;;;;;;10066707;28;20147;-77
2023/08/23 16:31:05;;;;;;;6.90;3.30;;;;;;;;;;10081983;28;20059;-76
2023/08/23 16:35:58;;;;;;;6.95;3.13;;;;;;;;;;10069769;28;20136;-75
2023/08/23 16:40:50;;;;;;;4.97;2.95;;;;;;;;;;10065839;28;20132;-76
2023/08/23 16:45:44;;;;;;;9.93;3.15;;;;;;;;;;10067742;28;20136;-76
2023/08/23 16:50:38;;;;;;;5.35;3.22;;;;;;;;;;10067416;28;20463;-75
2023/08/23 16:55:37;;;;;;;5.85;2.70;;;;;;;;;;10065798;28;20061;-77
2023/08/23 17:00:29;;;;;;;3.78;2.78;;;;;;;;;;10065993;28;20128;-77
2023/08/23 17:05:21;;;;;;;8.98;3.28;;;;;;;;;;10065846;28;20041;-77
2023/08/23 17:10:13;;;;;;;6.40;3.35;;;;;;;;;;10062827;28;20463;-76
2023/08/23 17:15:07;;;;;;;6.68;3.97;;;;;;;;;;10063432;28;20531;-75
2023/08/23 17:19:59;;;;;;;3.97;3.60;;;;;;;;;;10060943;28;20519;-77
2023/08/23 17:24:51;;;;;;;7.45;3.83;;;;;;;;;;10064557;28;20444;-77
2023/08/23 17:29:43;;;;;;;6.60;3.85;;;;;;;;;;10068955;28;20103;-77
2023/08/23 17:34:35;;;;;;;10.50;3.95;;;;;;;;;;10064968;28;20360;-75
2023/08/23 17:39:27;;;;;;;8.82;4.60;;;;;;;;;;10064646;28;20049;-77
2023/08/23 17:44:19;;;;;;;7.35;4.32;;;;;;;;;;10059558;28;20041;-76
2023/08/23 17:49:11;;;;;;;7.20;3.45;;;;;;;;;;10065810;28;20037;-76
2023/08/23 17:54:04;;;;;;;5.28;4.60;;;;;;;;;;10047443;28;20076;-76
2023/08/23 17:58:56;;;;;;;8.63;4.95;;;;;;;;;;10065021;28;20053;-78
2023/08/23 18:03:49;;;;;;;9.50;4.88;;;;;;;;;;10062726;28;20041;-76
2023/08/23 18:08:41;;;;;;;9.77;4.90;;;;;;;;;;10060289;28;20090;-77
2023/08/23 18:13:33;;;;;;;9.73;4.50;;;;;;;;;;10061741;28;20052;-78
2023/08/23 18:18:24;;;;;;;6.22;4.38;;;;;;;;;;10062782;28;20794;-77
2023/08/23 18:23:16;;;;;;;12.00;4.63;;;;;;;;;;10062883;28;20452;-76
2023/08/23 18:28:08;;;;;;;4.75;3.85;;;;;;;;;;10069415;28;20041;-78
2023/08/23 18:33:00;;;;;;;7.03;4.88;;;;;;;;;;10061613;28;20046;-78
2023/08/23 18:37:52;;;;;;;9.63;4.57;;;;;;;;;;10061718;28;20448;-77
2023/08/23 18:42:44;;;;;;;5.07;4.45;;;;;;;;;;10061071;28;20072;-77
2023/08/23 18:47:36;;;;;;;6.45;4.88;;;;;;;;;;10058805;28;20046;-75
2023/08/23 18:52:32;;;;;;;8.57;5.45;;;;;;;;;;10061540;28;20045;-77
2023/08/23 18:57:24;;;;;;;9.70;5.13;;;;;;;;;;10063076;28;20049;-78
2023/08/23 19:02:16;;;;;;;13.25;5.38;;;;;;;;;;10027939;28;20709;-76
2023/08/23 19:07:08;;;;;;;10.60;4.95;;;;;;;;;;10023222;28;20109;-76
2023/08/23 19:12:00;;;;;;;7.78;4.68;;;;;;;;;;10023343;28;20042;-76
2023/08/23 19:16:52;;;;;;;9.18;6.25;;;;;;;;;;10023394;28;20403;-78
2023/08/23 19:21:44;;;;;;;6.57;5.88;;;;;;;;;;10023016;28;20166;-77
2023/08/23 19:26:35;;;;;;;11.18;6.28;;;;;;;;;;10022975;28;20196;-78
2023/08/23 19:31:33;;;;;;;7.47;5.32;;;;;;;;;;10023270;28;20494;-77
2023/08/23 19:36:26;;;;;;;8.10;5.03;;;;;;;;;;10022718;28;20388;-77
2023/08/23 19:41:17;;;;;;;7.38;5.07;;;;;;;;;;10022236;28;20129;-78
2023/08/23 19:46:09;;;;;;;8.35;5.25;;;;;;;;;;10022658;28;20053;-77
2023/08/23 19:51:02;;;;;;;6.45;5.15;;;;;;;;;;10022110;28;20384;-78
2023/08/23 19:55:59;;;;;;;11.05;5.50;;;;;;;;;;10022594;28;20477;-78
2023/08/23 20:00:51;;;;;;;11.07;5.38;;;;;;;;;;10050048;28;20560;-77
2023/08/23 20:05:44;;;;;;;5.88;4.97;;;;;;;;;;10069551;28;20049;-78
2023/08/23 20:10:36;;;;;;;6.80;5.57;;;;;;;;;;10069262;28;20056;-77
2023/08/23 20:15:28;;;;;;;5.82;4.85;;;;;;;;;;10069248;28;20049;-76
2023/08/23 20:20:20;;;;;;;7.55;5.60;;;;;;;;;;10068346;28;20463;-78
2023/08/23 20:25:12;;;;;;;9.55;5.18;;;;;;;;;;10067315;28;20057;-79
2023/08/23 20:30:05;;;;;;;7.10;5.05;;;;;;;;;;10068336;28;20550;-78
2023/08/23 20:34:57;;;;;;;10.65;6.05;;;;;;;;;;10068101;28;20049;-76
2023/08/23 20:39:49;;;;;;;8.13;5.47;;;;;;;;;;10049266;28;20160;-78
2023/08/23 20:44:41;;;;;;;11.02;7.22;;;;;;;;;;10028485;28;20121;-79
2023/08/23 20:49:34;;;;;;;9.02;6.28;;;;;;;;;;10028085;28;20130;-78
2023/08/23 20:54:26;;;;;;;8.07;6.22;;;;;;;;;;10027700;28;20045;-78
2023/08/23 20:59:18;;;;;;;6.95;5.28;;;;;;;;;;10027844;28;20460;-77
2023/08/23 21:04:10;;;;;;;10.55;4.60;;;;;;;;;;10027376;28;20519;-77
2023/08/23 21:09:03;;;;;;;6.68;5.43;;;;;;;;;;10027133;28;20081;-78
2023/08/23 21:13:55;;;;;;;7.13;6.15;;;;;;;;;;10010853;28;20069;-77
2023/08/23 21:18:47;;;;;;;6.85;4.88;;;;;;;;;;10026411;28;20056;-79
2023/08/23 21:23:39;;;;;;;7.00;4.63;;;;;;;;;;10024895;28;20134;-78
2023/08/23 21:28:31;;;;;;;8.07;6.22;;;;;;;;;;10026370;28;20046;-78
2023/08/23 21:33:23;;;;;;;7.03;4.80;;;;;;;;;;10026557;28;20403;-78
2023/08/23 21:38:15;;;;;;;9.00;5.93;;;;;;;;;;10025790;28;20494;-78
2023/08/23 21:43:08;;;;;;;7.97;5.97;;;;;;;;;;10026331;28;20053;-75
2023/08/23 21:48:01;;;;;;;6.88;5.35;;;;;;;;;;10025967;28;20050;-77
2023/08/23 21:52:53;;;;;;;8.02;5.55;;;;;;;;;;10024457;28;20056;-77
2023/08/23 21:57:45;;;;;;;6.07;5.47;;;;;;;;;;10025447;28;20409;-78
2023/08/23 22:02:38;;;;;;;6.03;5.32;;;;;;;;;;10025183;28;20447;-77
2023/08/23 22:07:30;;;;;;;6.30;5.38;;;;;;;;;;10024910;28;20439;-78
2023/08/23 22:12:22;;;;;;;5.93;5.32;;;;;;;;;;10007858;28;20049;-78
2023/08/23 22:17:14;;;;;;;14.23;5.45;;;;;;;;;;10036719;28;20049;-79
2023/08/23 22:22:05;;;;;;;5.80;5.30;;;;;;;;;;10061547;28;20044;-75
2023/08/23 22:26:57;;;;;;;6.75;5.80;;;;;;;;;;10066504;28;20041;-74
2023/08/23 22:31:49;;;;;;;5.38;4.72;;;;;;;;;;10054683;28;20072;-74
2023/08/23 22:36:41;;;;;;;5.05;4.28;;;;;;;;;;10052673;28;20046;-76
2023/08/23 22:41:33;;;;;;;5.97;5.28;;;;;;;;;;10062607;28;20077;-73
2023/08/23 22:46:25;;;;;;;5.68;5.18;;;;;;;;;;10061922;28;20041;-74
2023/08/23 22:51:23;;;;;;;7.43;5.22;;;;;;;;;;10062588;28;20051;-75
2023/08/23 22:56:15;;;;;;;6.57;4.72;;;;;;;;;;10066989;28;20052;-73
2023/08/23 23:01:07;;;;;;;5.95;5.30;;;;;;;;;;10065036;28;20041;-76
2023/08/23 23:05:59;;;;;;;5.75;4.35;;;;;;;;;;10062582;28;20135;-74
2023/08/23 23:10:51;;;;;;;6.93;4.53;;;;;;;;;;10068735;28;20072;-76
2023/08/23 23:15:43;;;;;;;5.20;4.15;;;;;;;;;;10055734;28;20133;-75
2023/08/23 23:20:36;;;;;;;8.40;5.10;;;;;;;;;;10059928;28;20040;-76
2023/08/23 23:25:28;;;;;;;6.28;4.55;;;;;;;;;;10047205;28;20088;-76
2023/08/23 23:30:20;;;;;;;9.20;4.95;;;;;;;;;;10055442;28;20053;-75
2023/08/23 23:35:12;;;;;;;5.65;4.90;;;;;;;;;;10074382;28;20053;-73
2023/08/23 23:40:09;;;;;;;7.20;5.28;;;;;;;;;;10067655;28;20144;-74
2023/08/23 23:45:01;;;;;;;5.82;4.75;;;;;;;;;;10068656;28;20041;-73
2023/08/23 23:49:53;;;;;;;6.43;4.55;;;;;;;;;;10067469;28;20045;-74
2023/08/23 23:54:45;;;;;;;5.55;5.05;;;;;;;;;;10070057;28;20044;-75
2023/08/23 23:59:36;;;;;;;8.63;5.13;;;;;;;;;;10068397;28;20132;-75
